sensor_id;sensor_type;location;lat;lon;timestamp;pressure;altitude;pressure_sealevel;temperature;humidity
71917;BME280;59793;46.506;6.674;2022-11-20T00:01:27;96844.25;;;6.95;70.14
71917;BME280;59793;46.506;6.674;2022-11-20T00:03:53;96847.88;;;7.03;69.01
71917;BME280;59793;46.506;6.674;2022-11-20T00:06:19;96846.94;;;7.07;68.61
71917;BME280;59793;46.506;6.674;2022-11-20T00:08:44;96847.56;;;7.04;68.71
71917;BME280;59793;46.506;6.674;2022-11-20T00:11:11;96850.63;;;7.06;68.46
71917;BME280;59793;46.506;6.674;2022-11-20T00:13:37;96852.81;;;7.04;68.54
71917;BME280;59793;46.506;6.674;2022-11-20T00:16:03;96860.97;;;7.03;68.33
71917;BME280;59793;46.506;6.674;2022-11-20T00:18:29;96853.25;;;7.06;67.59
71917;BME280;59793;46.506;6.674;2022-11-20T00:21:00;96864.81;;;7.05;67.85
71917;BME280;59793;46.506;6.674;2022-11-20T00:23:25;96863.84;;;7.10;67.63
71917;BME280;59793;46.506;6.674;2022-11-20T00:25:50;96868.13;;;7.14;67.34
71917;BME280;59793;46.506;6.674;2022-11-20T00:28:15;96878.72;;;7.18;67.52
71917;BME280;59793;46.506;6.674;2022-11-20T00:30:41;96872.31;;;7.28;66.95
71917;BME280;59793;46.506;6.674;2022-11-20T00:33:06;96885.22;;;7.33;66.68
71917;BME280;59793;46.506;6.674;2022-11-20T00:35:31;96885.75;;;7.26;66.70
71917;BME280;59793;46.506;6.674;2022-11-20T00:37:56;96877.66;;;7.31;66.38
71917;BME280;59793;46.506;6.674;2022-11-20T00:40:21;96877.91;;;7.38;65.51
71917;BME280;59793;46.506;6.674;2022-11-20T00:42:47;96878.16;;;7.46;64.82
71917;BME280;59793;46.506;6.674;2022-11-20T00:45:12;96881.75;;;7.41;65.47
71917;BME280;59793;46.506;6.674;2022-11-20T00:47:37;96885.06;;;7.50;65.16
71917;BME280;59793;46.506;6.674;2022-11-20T00:50:02;96891.59;;;7.44;64.97
71917;BME280;59793;46.506;6.674;2022-11-20T00:52:28;96879.69;;;7.47;64.75
71917;BME280;59793;46.506;6.674;2022-11-20T00:54:53;96889.06;;;7.48;64.90
71917;BME280;59793;46.506;6.674;2022-11-20T00:57:18;96882.44;;;7.50;64.35
71917;BME280;59793;46.506;6.674;2022-11-20T00:59:43;96892.28;;;7.53;64.26
71917;BME280;59793;46.506;6.674;2022-11-20T01:02:09;96892.28;;;7.53;63.74
71917;BME280;59793;46.506;6.674;2022-11-20T01:04:34;96897.75;;;7.60;63.70
71917;BME280;59793;46.506;6.674;2022-11-20T01:06:59;96903.41;;;7.62;63.29
71917;BME280;59793;46.506;6.674;2022-11-20T01:09:24;96899.97;;;7.71;63.19
71917;BME280;59793;46.506;6.674;2022-11-20T01:11:49;96908.25;;;7.73;61.87
71917;BME280;59793;46.506;6.674;2022-11-20T01:14:16;96904.53;;;7.74;62.00
71917;BME280;59793;46.506;6.674;2022-11-20T01:16:46;96905.63;;;7.73;62.47
71917;BME280;59793;46.506;6.674;2022-11-20T01:19:14;96922.03;;;7.82;62.18
71917;BME280;59793;46.506;6.674;2022-11-20T01:21:40;96914.50;;;7.80;62.45
71917;BME280;59793;46.506;6.674;2022-11-20T01:24:06;96919.44;;;7.82;62.25
71917;BME280;59793;46.506;6.674;2022-11-20T01:26:33;96925.75;;;7.81;61.89
71917;BME280;59793;46.506;6.674;2022-11-20T01:28:59;96924.22;;;7.80;61.59
71917;BME280;59793;46.506;6.674;2022-11-20T01:31:26;96925.75;;;7.81;62.11
71917;BME280;59793;46.506;6.674;2022-11-20T01:33:52;96919.19;;;7.87;61.60
71917;BME280;59793;46.506;6.674;2022-11-20T01:36:18;96920.75;;;7.88;62.13
71917;BME280;59793;46.506;6.674;2022-11-20T01:38:44;96914.19;;;7.94;61.89
71917;BME280;59793;46.506;6.674;2022-11-20T01:41:10;96916.63;;;7.99;61.34
71917;BME280;59793;46.506;6.674;2022-11-20T01:43:36;96917.56;;;7.95;62.28
71917;BME280;59793;46.506;6.674;2022-11-20T01:48:28;96920.97;;;7.95;62.15
71917;BME280;59793;46.506;6.674;2022-11-20T01:50:55;96920.41;;;7.89;62.44
71917;BME280;59793;46.506;6.674;2022-11-20T01:53:21;96916.69;;;7.78;62.93
71917;BME280;59793;46.506;6.674;2022-11-20T01:55:51;96927.22;;;7.57;63.28
71917;BME280;59793;46.506;6.674;2022-11-20T01:58:19;96931.84;;;7.60;63.39
71917;BME280;59793;46.506;6.674;2022-11-20T02:00:46;96922.41;;;7.59;62.82
71917;BME280;59793;46.506;6.674;2022-11-20T02:03:15;96923.91;;;7.48;63.36
71917;BME280;59793;46.506;6.674;2022-11-20T02:08:25;96929.41;;;7.55;63.90
71917;BME280;59793;46.506;6.674;2022-11-20T02:10:50;96928.75;;;7.58;63.92
71917;BME280;59793;46.506;6.674;2022-11-20T02:13:15;96931.19;;;7.63;63.77
71917;BME280;59793;46.506;6.674;2022-11-20T02:15:59;96923.75;;;7.65;63.48
71917;BME280;59793;46.506;6.674;2022-11-20T02:18:25;96934.25;;;7.65;63.24
71917;BME280;59793;46.506;6.674;2022-11-20T02:20:53;96925.84;;;7.72;63.81
71917;BME280;59793;46.506;6.674;2022-11-20T02:23:23;96931.84;;;7.73;63.74
71917;BME280;59793;46.506;6.674;2022-11-20T02:25:52;96935.69;;;7.75;64.15
71917;BME280;59793;46.506;6.674;2022-11-20T02:28:18;96928.34;;;7.69;64.28
71917;BME280;59793;46.506;6.674;2022-11-20T02:30:44;96935.13;;;7.70;63.54
71917;BME280;59793;46.506;6.674;2022-11-20T02:33:09;96937.06;;;7.60;65.24
71917;BME280;59793;46.506;6.674;2022-11-20T02:38:01;96943.72;;;7.58;65.63
71917;BME280;59793;46.506;6.674;2022-11-20T02:40:27;96941.19;;;7.49;65.36
71917;BME280;59793;46.506;6.674;2022-11-20T02:42:53;96944.47;;;7.58;65.68
71917;BME280;59793;46.506;6.674;2022-11-20T02:45:19;96946.69;;;7.56;66.21
71917;BME280;59793;46.506;6.674;2022-11-20T02:47:44;96949.84;;;7.62;66.42
71917;BME280;59793;46.506;6.674;2022-11-20T02:50:10;96940.50;;;7.40;66.29
71917;BME280;59793;46.506;6.674;2022-11-20T02:52:35;96939.59;;;7.36;66.38
71917;BME280;59793;46.506;6.674;2022-11-20T02:55:00;96939.41;;;7.41;65.52
71917;BME280;59793;46.506;6.674;2022-11-20T02:57:25;96943.34;;;7.47;64.81
71917;BME280;59793;46.506;6.674;2022-11-20T02:59:51;96938.00;;;7.43;64.64
71917;BME280;59793;46.506;6.674;2022-11-20T03:02:16;96944.88;;;7.48;64.92
71917;BME280;59793;46.506;6.674;2022-11-20T03:04:41;96937.88;;;7.40;64.95
71917;BME280;59793;46.506;6.674;2022-11-20T03:07:07;96945.00;;;7.52;64.75
71917;BME280;59793;46.506;6.674;2022-11-20T03:09:32;96935.94;;;7.49;64.51
71917;BME280;59793;46.506;6.674;2022-11-20T03:11:57;96945.72;;;7.40;64.73
71917;BME280;59793;46.506;6.674;2022-11-20T03:14:23;96947.00;;;7.34;64.87
71917;BME280;59793;46.506;6.674;2022-11-20T03:16:48;96946.97;;;7.42;64.96
71917;BME280;59793;46.506;6.674;2022-11-20T03:19:13;96946.63;;;7.44;65.17
71917;BME280;59793;46.506;6.674;2022-11-20T03:21:38;96948.72;;;7.51;65.13
71917;BME280;59793;46.506;6.674;2022-11-20T03:24:04;96956.25;;;7.52;64.99
71917;BME280;59793;46.506;6.674;2022-11-20T03:26:29;96953.31;;;7.54;64.57
71917;BME280;59793;46.506;6.674;2022-11-20T03:28:59;96951.13;;;7.56;64.80
71917;BME280;59793;46.506;6.674;2022-11-20T03:31:25;96957.94;;;7.57;63.98
71917;BME280;59793;46.506;6.674;2022-11-20T03:33:51;96958.22;;;7.55;64.32
71917;BME280;59793;46.506;6.674;2022-11-20T03:36:17;96958.88;;;7.52;64.32
71917;BME280;59793;46.506;6.674;2022-11-20T03:38:42;96958.19;;;7.43;64.37
71917;BME280;59793;46.506;6.674;2022-11-20T03:41:09;96956.53;;;7.38;64.34
71917;BME280;59793;46.506;6.674;2022-11-20T03:43:34;96962.56;;;7.39;64.59
71917;BME280;59793;46.506;6.674;2022-11-20T03:46:00;96962.56;;;7.39;65.35
71917;BME280;59793;46.506;6.674;2022-11-20T03:48:25;96961.81;;;7.51;64.85
71917;BME280;59793;46.506;6.674;2022-11-20T03:50:51;96963.47;;;7.55;64.76
71917;BME280;59793;46.506;6.674;2022-11-20T03:53:17;96939.84;;;7.43;65.40
71917;BME280;59793;46.506;6.674;2022-11-20T03:55:42;96965.16;;;7.60;65.33
71917;BME280;59793;46.506;6.674;2022-11-20T03:58:08;96963.97;;;7.70;64.90
71917;BME280;59793;46.506;6.674;2022-11-20T04:00:34;96965.28;;;7.76;64.84
71917;BME280;59793;46.506;6.674;2022-11-20T04:03:00;96969.03;;;7.87;65.25
71917;BME280;59793;46.506;6.674;2022-11-20T04:05:25;96972.31;;;7.84;65.11
71917;BME280;59793;46.506;6.674;2022-11-20T04:07:51;96966.75;;;7.85;65.68
71917;BME280;59793;46.506;6.674;2022-11-20T04:10:16;96969.38;;;7.85;65.61
71917;BME280;59793;46.506;6.674;2022-11-20T04:12:41;96979.13;;;7.97;65.19
71917;BME280;59793;46.506;6.674;2022-11-20T04:15:06;96980.66;;;7.98;65.23
71917;BME280;59793;46.506;6.674;2022-11-20T04:17:32;96977.78;;;7.91;65.47
71917;BME280;59793;46.506;6.674;2022-11-20T04:19:57;96980.63;;;7.86;65.77
71917;BME280;59793;46.506;6.674;2022-11-20T04:22:22;96975.66;;;7.72;65.67
71917;BME280;59793;46.506;6.674;2022-11-20T04:24:47;96981.25;;;7.71;66.51
71917;BME280;59793;46.506;6.674;2022-11-20T04:27:12;96977.44;;;7.80;66.88
71917;BME280;59793;46.506;6.674;2022-11-20T04:29:38;96984.78;;;7.87;66.79
71917;BME280;59793;46.506;6.674;2022-11-20T04:32:03;96979.97;;;7.89;66.91
71917;BME280;59793;46.506;6.674;2022-11-20T04:34:28;96974.75;;;8.01;66.49
71917;BME280;59793;46.506;6.674;2022-11-20T04:36:53;96973.91;;;8.09;66.36
71917;BME280;59793;46.506;6.674;2022-11-20T04:39:19;96980.78;;;8.14;66.91
71917;BME280;59793;46.506;6.674;2022-11-20T04:41:44;96976.09;;;8.07;67.37
71917;BME280;59793;46.506;6.674;2022-11-20T04:44:11;96977.72;;;8.00;67.54
71917;BME280;59793;46.506;6.674;2022-11-20T04:46:37;96978.81;;;7.99;67.66
71917;BME280;59793;46.506;6.674;2022-11-20T04:49:03;96977.59;;;7.96;68.11
71917;BME280;59793;46.506;6.674;2022-11-20T04:51:29;96977.38;;;8.01;67.78
71917;BME280;59793;46.506;6.674;2022-11-20T04:53:54;96976.50;;;7.97;68.28
71917;BME280;59793;46.506;6.674;2022-11-20T04:56:19;96978.94;;;8.02;68.14
71917;BME280;59793;46.506;6.674;2022-11-20T04:58:45;96980.03;;;8.13;67.85
71917;BME280;59793;46.506;6.674;2022-11-20T05:03:35;96978.72;;;8.07;68.04
71917;BME280;59793;46.506;6.674;2022-11-20T05:06:01;96972.25;;;8.05;68.36
71917;BME280;59793;46.506;6.674;2022-11-20T05:08:26;96973.56;;;8.11;68.77
71917;BME280;59793;46.506;6.674;2022-11-20T05:10:51;96967.56;;;8.23;68.54
71917;BME280;59793;46.506;6.674;2022-11-20T05:13:17;96968.66;;;8.22;68.63
71917;BME280;59793;46.506;6.674;2022-11-20T05:15:42;96961.25;;;8.24;68.57
71917;BME280;59793;46.506;6.674;2022-11-20T05:18:07;96960.03;;;8.21;68.63
71917;BME280;59793;46.506;6.674;2022-11-20T05:20:32;96961.44;;;8.06;68.95
71917;BME280;59793;46.506;6.674;2022-11-20T05:22:57;96966.34;;;8.08;69.08
71917;BME280;59793;46.506;6.674;2022-11-20T05:25:23;96969.72;;;8.08;69.09
71917;BME280;59793;46.506;6.674;2022-11-20T05:27:48;96980.03;;;8.13;69.40
71917;BME280;59793;46.506;6.674;2022-11-20T05:30:13;96980.91;;;8.30;69.36
71917;BME280;59793;46.506;6.674;2022-11-20T05:32:39;96978.50;;;8.25;69.18
71917;BME280;59793;46.506;6.674;2022-11-20T05:35:04;96981.22;;;8.16;69.29
71917;BME280;59793;46.506;6.674;2022-11-20T05:37:29;96972.81;;;8.10;70.07
71917;BME280;59793;46.506;6.674;2022-11-20T05:39:54;96968.19;;;7.95;70.47
71917;BME280;59793;46.506;6.674;2022-11-20T05:42:20;96980.09;;;7.93;70.24
71917;BME280;59793;46.506;6.674;2022-11-20T05:45:01;96981.97;;;8.04;69.42
71917;BME280;59793;46.506;6.674;2022-11-20T05:47:27;96983.94;;;7.95;69.80
71917;BME280;59793;46.506;6.674;2022-11-20T05:49:52;96982.28;;;7.90;69.83
71917;BME280;59793;46.506;6.674;2022-11-20T05:52:18;96981.09;;;8.00;69.35
71917;BME280;59793;46.506;6.674;2022-11-20T05:54:43;96977.13;;;7.94;69.76
71917;BME280;59793;46.506;6.674;2022-11-20T05:57:08;96982.38;;;7.94;69.90
71917;BME280;59793;46.506;6.674;2022-11-20T05:59:33;96987.16;;;7.80;70.21
71917;BME280;59793;46.506;6.674;2022-11-20T06:01:59;96975.38;;;7.86;69.22
71917;BME280;59793;46.506;6.674;2022-11-20T06:04:24;96981.28;;;7.83;69.56
71917;BME280;59793;46.506;6.674;2022-11-20T06:06:49;96983.44;;;7.81;69.79
71917;BME280;59793;46.506;6.674;2022-11-20T06:09:14;96980.81;;;7.81;69.41
71917;BME280;59793;46.506;6.674;2022-11-20T06:11:40;96975.34;;;7.74;70.13
71917;BME280;59793;46.506;6.674;2022-11-20T06:14:05;96985.06;;;7.73;70.40
71917;BME280;59793;46.506;6.674;2022-11-20T06:16:31;96986.88;;;7.60;70.49
71917;BME280;59793;46.506;6.674;2022-11-20T06:18:56;96994.28;;;7.58;70.74
71917;BME280;59793;46.506;6.674;2022-11-20T06:21:23;96990.41;;;7.64;71.18
71917;BME280;59793;46.506;6.674;2022-11-20T06:23:49;96994.13;;;7.63;70.70
71917;BME280;59793;46.506;6.674;2022-11-20T06:26:18;96993.66;;;7.61;70.82
71917;BME280;59793;46.506;6.674;2022-11-20T06:28:44;96996.91;;;7.58;71.28
71917;BME280;59793;46.506;6.674;2022-11-20T06:31:10;96988.66;;;7.69;70.96
71917;BME280;59793;46.506;6.674;2022-11-20T06:33:36;96987.25;;;7.71;70.55
71917;BME280;59793;46.506;6.674;2022-11-20T06:36:02;96991.06;;;7.74;70.66
71917;BME280;59793;46.506;6.674;2022-11-20T06:38:28;96988.63;;;7.56;71.83
71917;BME280;59793;46.506;6.674;2022-11-20T06:40:54;96991.50;;;7.63;71.64
71917;BME280;59793;46.506;6.674;2022-11-20T06:43:19;96995.06;;;7.59;72.33
71917;BME280;59793;46.506;6.674;2022-11-20T06:45:44;96993.78;;;7.65;72.61
71917;BME280;59793;46.506;6.674;2022-11-20T06:48:10;96997.88;;;7.75;72.93
71917;BME280;59793;46.506;6.674;2022-11-20T06:50:38;97006.63;;;7.79;73.05
71917;BME280;59793;46.506;6.674;2022-11-20T06:53:04;97003.13;;;7.87;72.85
71917;BME280;59793;46.506;6.674;2022-11-20T06:55:29;97005.81;;;7.99;72.52
71917;BME280;59793;46.506;6.674;2022-11-20T06:57:54;97007.69;;;8.11;71.93
71917;BME280;59793;46.506;6.674;2022-11-20T07:00:20;97009.09;;;8.08;72.20
71917;BME280;59793;46.506;6.674;2022-11-20T07:02:45;97011.53;;;8.13;72.05
71917;BME280;59793;46.506;6.674;2022-11-20T07:05:10;97016.78;;;8.26;71.81
71917;BME280;59793;46.506;6.674;2022-11-20T07:07:35;97011.88;;;8.24;72.52
71917;BME280;59793;46.506;6.674;2022-11-20T07:10:01;97016.47;;;8.27;72.72
71917;BME280;59793;46.506;6.674;2022-11-20T07:12:26;97017.88;;;8.25;72.36
71917;BME280;59793;46.506;6.674;2022-11-20T07:14:51;97020.94;;;8.27;72.39
71917;BME280;59793;46.506;6.674;2022-11-20T07:17:16;97022.09;;;8.38;70.53
71917;BME280;59793;46.506;6.674;2022-11-20T07:19:41;97020.06;;;8.23;70.28
71917;BME280;59793;46.506;6.674;2022-11-20T07:22:08;97022.84;;;7.93;71.81
71917;BME280;59793;46.506;6.674;2022-11-20T07:24:33;97033.09;;;7.98;71.20
71917;BME280;59793;46.506;6.674;2022-11-20T07:26:58;97035.31;;;8.08;70.15
71917;BME280;59793;46.506;6.674;2022-11-20T07:29:23;97034.38;;;8.13;69.67
71917;BME280;59793;46.506;6.674;2022-11-20T07:31:48;97030.84;;;8.09;70.08
71917;BME280;59793;46.506;6.674;2022-11-20T07:34:14;97037.94;;;8.08;69.96
71917;BME280;59793;46.506;6.674;2022-11-20T07:36:39;97038.00;;;8.21;70.06
71917;BME280;59793;46.506;6.674;2022-11-20T07:39:04;97034.50;;;8.29;70.36
71917;BME280;59793;46.506;6.674;2022-11-20T07:41:29;97037.25;;;8.32;70.35
71917;BME280;59793;46.506;6.674;2022-11-20T07:43:56;97039.59;;;8.46;70.23
71917;BME280;59793;46.506;6.674;2022-11-20T07:46:21;97042.78;;;8.52;70.06
71917;BME280;59793;46.506;6.674;2022-11-20T07:48:47;97038.84;;;8.58;70.22
71917;BME280;59793;46.506;6.674;2022-11-20T07:51:12;97037.19;;;8.66;70.12
71917;BME280;59793;46.506;6.674;2022-11-20T07:53:38;97040.94;;;8.77;69.84
71917;BME280;59793;46.506;6.674;2022-11-20T07:56:03;97032.50;;;8.83;69.94
71917;BME280;59793;46.506;6.674;2022-11-20T07:58:29;97028.00;;;8.96;69.37
71917;BME280;59793;46.506;6.674;2022-11-20T08:00:55;97039.84;;;9.02;69.21
71917;BME280;59793;46.506;6.674;2022-11-20T08:03:20;97047.47;;;9.07;68.91
71917;BME280;59793;46.506;6.674;2022-11-20T08:05:45;97039.59;;;9.20;68.87
71917;BME280;59793;46.506;6.674;2022-11-20T08:08:11;97035.94;;;9.37;67.96
71917;BME280;59793;46.506;6.674;2022-11-20T08:10:36;97040.91;;;9.54;68.11
71917;BME280;59793;46.506;6.674;2022-11-20T08:13:01;97049.59;;;9.54;68.03
71917;BME280;59793;46.506;6.674;2022-11-20T08:15:49;97047.28;;;9.53;68.20
71917;BME280;59793;46.506;6.674;2022-11-20T08:18:16;97046.47;;;9.24;68.44
71917;BME280;59793;46.506;6.674;2022-11-20T08:20:42;97040.75;;;9.34;68.86
71917;BME280;59793;46.506;6.674;2022-11-20T08:23:07;97043.53;;;9.26;67.33
71917;BME280;59793;46.506;6.674;2022-11-20T08:25:33;97047.94;;;9.09;67.37
71917;BME280;59793;46.506;6.674;2022-11-20T08:27:59;97050.88;;;9.20;66.11
71917;BME280;59793;46.506;6.674;2022-11-20T08:30:25;97048.69;;;9.22;66.11
71917;BME280;59793;46.506;6.674;2022-11-20T08:32:50;97052.72;;;9.20;66.74
71917;BME280;59793;46.506;6.674;2022-11-20T08:35:15;97057.13;;;9.16;66.36
71917;BME280;59793;46.506;6.674;2022-11-20T08:37:41;97060.63;;;9.20;66.62
71917;BME280;59793;46.506;6.674;2022-11-20T08:40:08;97065.63;;;9.25;66.78
71917;BME280;59793;46.506;6.674;2022-11-20T08:42:33;97062.13;;;9.33;67.40
71917;BME280;59793;46.506;6.674;2022-11-20T08:44:58;97056.53;;;9.34;66.94
71917;BME280;59793;46.506;6.674;2022-11-20T08:47:24;97062.59;;;9.23;67.95
71917;BME280;59793;46.506;6.674;2022-11-20T08:49:49;97064.34;;;9.19;68.25
71917;BME280;59793;46.506;6.674;2022-11-20T08:52:14;97066.50;;;9.29;67.68
71917;BME280;59793;46.506;6.674;2022-11-20T08:54:39;97061.56;;;9.40;67.34
71917;BME280;59793;46.506;6.674;2022-11-20T08:57:05;97064.72;;;9.45;67.33
71917;BME280;59793;46.506;6.674;2022-11-20T08:59:30;97063.72;;;9.50;66.57
71917;BME280;59793;46.506;6.674;2022-11-20T09:01:56;97071.41;;;9.55;66.47
71917;BME280;59793;46.506;6.674;2022-11-20T09:04:21;97069.84;;;9.54;66.81
71917;BME280;59793;46.506;6.674;2022-11-20T09:06:46;97063.16;;;9.56;67.32
71917;BME280;59793;46.506;6.674;2022-11-20T09:09:15;97062.34;;;9.40;67.10
71917;BME280;59793;46.506;6.674;2022-11-20T09:11:40;97044.41;;;9.18;66.33
71917;BME280;59793;46.506;6.674;2022-11-20T09:14:06;97072.03;;;8.99;65.84
71917;BME280;59793;46.506;6.674;2022-11-20T09:16:31;97074.63;;;8.75;66.79
71917;BME280;59793;46.506;6.674;2022-11-20T09:18:56;97072.22;;;8.82;67.12
71917;BME280;59793;46.506;6.674;2022-11-20T09:21:21;97072.66;;;8.72;66.96
71917;BME280;59793;46.506;6.674;2022-11-20T09:23:47;97069.72;;;8.98;66.01
71917;BME280;59793;46.506;6.674;2022-11-20T09:26:13;97076.63;;;9.02;64.02
71917;BME280;59793;46.506;6.674;2022-11-20T09:28:39;97080.25;;;8.98;63.46
71917;BME280;59793;46.506;6.674;2022-11-20T09:31:05;97086.91;;;9.20;63.50
71917;BME280;59793;46.506;6.674;2022-11-20T09:33:30;97075.00;;;9.50;63.04
71917;BME280;59793;46.506;6.674;2022-11-20T09:35:55;97078.78;;;9.37;62.54
71917;BME280;59793;46.506;6.674;2022-11-20T09:38:20;97078.97;;;9.85;61.08
71917;BME280;59793;46.506;6.674;2022-11-20T09:41:05;97080.25;;;10.63;59.10
71917;BME280;59793;46.506;6.674;2022-11-20T09:43:32;97078.22;;;11.04;55.96
71917;BME280;59793;46.506;6.674;2022-11-20T09:51:13;97079.41;;;10.15;55.87
71917;BME280;59793;46.506;6.674;2022-11-20T09:56:10;97071.56;;;10.02;55.46
71917;BME280;59793;46.506;6.674;2022-11-20T09:58:40;97076.13;;;9.90;55.33
71917;BME280;59793;46.506;6.674;2022-11-20T10:04:12;97072.31;;;10.31;53.24
71917;BME280;59793;46.506;6.674;2022-11-20T10:06:48;97071.34;;;9.79;54.96
71917;BME280;59793;46.506;6.674;2022-11-20T10:11:56;97080.03;;;9.96;54.18
71917;BME280;59793;46.506;6.674;2022-11-20T10:27:29;97069.16;;;11.75;49.17
71917;BME280;59793;46.506;6.674;2022-11-20T10:30:00;97069.13;;;11.91;48.62
71917;BME280;59793;46.506;6.674;2022-11-20T10:32:30;97057.59;;;12.41;47.39
71917;BME280;59793;46.506;6.674;2022-11-20T10:34:59;97059.91;;;13.19;45.80
71917;BME280;59793;46.506;6.674;2022-11-20T10:37:26;97062.50;;;13.72;43.80
71917;BME280;59793;46.506;6.674;2022-11-20T10:45:01;97067.53;;;13.51;45.18
71917;BME280;59793;46.506;6.674;2022-11-20T10:47:28;97070.84;;;13.74;44.72
71917;BME280;59793;46.506;6.674;2022-11-20T10:49:55;97068.72;;;13.53;44.16
71917;BME280;59793;46.506;6.674;2022-11-20T11:00:05;97062.78;;;13.33;45.13
71917;BME280;59793;46.506;6.674;2022-11-20T11:02:35;97051.66;;;13.84;43.96
71917;BME280;59793;46.506;6.674;2022-11-20T11:07:55;97051.31;;;13.86;43.58
71917;BME280;59793;46.506;6.674;2022-11-20T11:10:22;97042.81;;;14.03;42.22
71917;BME280;59793;46.506;6.674;2022-11-20T11:12:49;97021.25;;;13.37;43.90
71917;BME280;59793;46.506;6.674;2022-11-20T11:15:24;97027.00;;;13.77;43.54
71917;BME280;59793;46.506;6.674;2022-11-20T11:17:49;97029.81;;;13.91;44.28
71917;BME280;59793;46.506;6.674;2022-11-20T11:20:21;97024.56;;;14.83;41.57
71917;BME280;59793;46.506;6.674;2022-11-20T11:22:48;97027.97;;;14.36;42.38
71917;BME280;59793;46.506;6.674;2022-11-20T11:27:55;97011.59;;;14.68;42.34
71917;BME280;59793;46.506;6.674;2022-11-20T11:30:21;97005.78;;;14.51;42.78
71917;BME280;59793;46.506;6.674;2022-11-20T11:32:47;97011.81;;;15.00;42.05
71917;BME280;59793;46.506;6.674;2022-11-20T11:35:25;97000.03;;;15.77;40.38
71917;BME280;59793;46.506;6.674;2022-11-20T11:37:52;96992.16;;;15.15;41.14
71917;BME280;59793;46.506;6.674;2022-11-20T11:40:19;96987.25;;;15.17;40.94
71917;BME280;59793;46.506;6.674;2022-11-20T11:42:50;96977.81;;;15.23;41.34
71917;BME280;59793;46.506;6.674;2022-11-20T11:45:17;96961.63;;;15.61;39.93
71917;BME280;59793;46.506;6.674;2022-11-20T11:52:33;96961.06;;;15.09;39.94
71917;BME280;59793;46.506;6.674;2022-11-20T11:55:04;96939.22;;;15.51;38.31
71917;BME280;59793;46.506;6.674;2022-11-20T11:57:37;96931.38;;;15.90;38.04
71917;BME280;59793;46.506;6.674;2022-11-20T12:00:10;96921.00;;;15.46;39.84
71917;BME280;59793;46.506;6.674;2022-11-20T12:05:18;96919.59;;;16.38;38.10
71917;BME280;59793;46.506;6.674;2022-11-20T12:07:52;96922.25;;;16.52;37.23
71917;BME280;59793;46.506;6.674;2022-11-20T12:12:48;96919.06;;;17.18;35.87
71917;BME280;59793;46.506;6.674;2022-11-20T12:15:16;96910.03;;;16.94;36.66
71917;BME280;59793;46.506;6.674;2022-11-20T12:17:44;96909.72;;;16.28;36.81
71917;BME280;59793;46.506;6.674;2022-11-20T12:20:13;96902.53;;;17.48;34.77
71917;BME280;59793;46.506;6.674;2022-11-20T12:23:14;96895.19;;;17.70;34.42
71917;BME280;59793;46.506;6.674;2022-11-20T12:25:31;96883.41;;;18.20;33.74
71917;BME280;59793;46.506;6.674;2022-11-20T12:30:30;96895.25;;;18.60;31.71
71917;BME280;59793;46.506;6.674;2022-11-20T12:40:55;96906.59;;;18.68;32.46
71917;BME280;59793;46.506;6.674;2022-11-20T12:43:29;96895.34;;;18.91;31.50
71917;BME280;59793;46.506;6.674;2022-11-20T12:54:29;96866.88;;;21.19;27.85
71917;BME280;59793;46.506;6.674;2022-11-20T13:07:54;96874.03;;;25.67;21.69
71917;BME280;59793;46.506;6.674;2022-11-20T13:10:21;96879.59;;;26.40;21.30
71917;BME280;59793;46.506;6.674;2022-11-20T13:12:51;96880.22;;;25.77;21.28
71917;BME280;59793;46.506;6.674;2022-11-20T13:15:34;96885.22;;;24.94;22.23
71917;BME280;59793;46.506;6.674;2022-11-20T13:18:02;96887.88;;;24.15;22.61
71917;BME280;59793;46.506;6.674;2022-11-20T13:20:29;96877.69;;;23.33;23.85
71917;BME280;59793;46.506;6.674;2022-11-20T13:22:55;96864.97;;;22.21;25.16
71917;BME280;59793;46.506;6.674;2022-11-20T13:25:31;96866.38;;;20.21;29.15
71917;BME280;59793;46.506;6.674;2022-11-20T13:27:58;96870.72;;;19.37;29.75
71917;BME280;59793;46.506;6.674;2022-11-20T13:30:27;96865.13;;;17.07;33.21
71917;BME280;59793;46.506;6.674;2022-11-20T13:36:20;96871.31;;;16.71;35.59
71917;BME280;59793;46.506;6.674;2022-11-20T13:38:13;96858.50;;;15.98;35.89
71917;BME280;59793;46.506;6.674;2022-11-20T13:46:04;96843.59;;;19.08;31.56
71917;BME280;59793;46.506;6.674;2022-11-20T13:48:31;96838.03;;;20.03;29.73
71917;BME280;59793;46.506;6.674;2022-11-20T13:51:01;96835.38;;;21.07;28.25
71917;BME280;59793;46.506;6.674;2022-11-20T13:53:32;96838.28;;;24.03;24.18
71917;BME280;59793;46.506;6.674;2022-11-20T13:56:08;96830.59;;;25.74;22.09
71917;BME280;59793;46.506;6.674;2022-11-20T13:58:40;96830.25;;;24.91;22.49
71917;BME280;59793;46.506;6.674;2022-11-20T14:01:12;96832.91;;;23.78;24.80
71917;BME280;59793;46.506;6.674;2022-11-20T14:03:41;96838.00;;;21.63;25.31
71917;BME280;59793;46.506;6.674;2022-11-20T14:06:11;96834.09;;;20.12;27.81
71917;BME280;59793;46.506;6.674;2022-11-20T14:08:42;96830.69;;;18.38;29.91
71917;BME280;59793;46.506;6.674;2022-11-20T14:13:50;96801.16;;;16.12;35.09
71917;BME280;59793;46.506;6.674;2022-11-20T14:16:19;96831.38;;;14.93;38.08
71917;BME280;59793;46.506;6.674;2022-11-20T14:18:44;96826.53;;;13.77;38.57
71917;BME280;59793;46.506;6.674;2022-11-20T14:21:09;96820.69;;;13.20;40.24
71917;BME280;59793;46.506;6.674;2022-11-20T14:23:35;96822.09;;;12.73;42.25
71917;BME280;59793;46.506;6.674;2022-11-20T14:26:00;96811.50;;;12.43;43.19
71917;BME280;59793;46.506;6.674;2022-11-20T14:28:26;96802.13;;;12.19;42.68
71917;BME280;59793;46.506;6.674;2022-11-20T14:30:52;96789.94;;;12.11;44.02
71917;BME280;59793;46.506;6.674;2022-11-20T14:33:17;96796.84;;;11.92;45.15
71917;BME280;59793;46.506;6.674;2022-11-20T14:35:48;96799.81;;;11.87;44.88
71917;BME280;59793;46.506;6.674;2022-11-20T14:38:15;96793.34;;;11.85;44.05
71917;BME280;59793;46.506;6.674;2022-11-20T14:40:41;96795.44;;;11.76;44.47
71917;BME280;59793;46.506;6.674;2022-11-20T14:45:41;96797.88;;;11.38;45.99
71917;BME280;59793;46.506;6.674;2022-11-20T14:48:08;96794.81;;;11.36;47.03
71917;BME280;59793;46.506;6.674;2022-11-20T14:50:34;96795.25;;;11.38;46.53
71917;BME280;59793;46.506;6.674;2022-11-20T14:53:00;96789.91;;;11.35;46.28